Time;durP1;ratioP1;P1;durP2;ratioP2;P2;SDS_P1;SDS_P2;PMS_P1;PMS_P2;Temp;Humidity;BMP_temperature;BMP_pressure;BME280_temperature;BME280_humidity;BME280_pressure;Samples;Min_cycle;Max_cycle;Signal;HPM_P1;HPM_P2
2023/06/19 06:55:26;;;;;;;5.38;3.33;;;;;;;20.95;71.04;96436.63;2092298;28;20886;-58
2023/06/19 06:57:36;;;;;;;4.53;3.10;;;;;;;21.04;70.50;96438.44;2087422;28;20559;-58
2023/06/19 06:58:39;;;;;;;6.53;3.30;;;;;;;21.15;69.71;96437.47;2082663;28;20197;-58
2023/06/19 06:59:40;;;;;;;4.10;2.45;;;;;;;21.26;69.39;96440.97;2082255;28;20587;-58
2023/06/19 07:00:41;;;;;;;5.03;2.65;;;;;;;21.44;69.32;96439.25;2081893;28;20200;-58
2023/06/19 07:01:43;;;;;;;6.35;3.15;;;;;;;21.40;68.67;96445.84;2083066;28;20201;-58
2023/06/19 07:02:47;;;;;;;6.30;2.53;;;;;;;21.65;68.15;96443.63;2083200;28;20216;-58
2023/06/19 07:03:49;;;;;;;5.07;2.80;;;;;;;21.63;67.62;96451.72;2082704;28;20294;-58
2023/06/19 07:06:17;;;;;;;5.10;3.47;;;;;;;21.82;67.22;96448.19;2081996;28;20554;-58
2023/06/19 07:07:19;;;;;;;4.72;2.60;;;;;;;21.94;67.17;96445.34;2078198;28;20287;-58
2023/06/19 07:08:20;;;;;;;5.45;3.08;;;;;;;21.91;66.23;96443.81;2072960;28;20197;-58
2023/06/19 07:09:21;;;;;;;4.10;3.10;;;;;;;21.71;67.29;96451.00;2073255;28;20229;-58
2023/06/19 07:10:23;;;;;;;7.18;3.30;;;;;;;21.84;67.34;96450.72;2075821;28;20227;-58
2023/06/19 07:11:25;;;;;;;4.32;2.65;;;;;;;21.77;67.29;96452.25;2070593;28;20233;-58
2023/06/19 07:12:27;;;;;;;4.43;2.67;;;;;;;21.80;67.75;96455.47;2070855;28;20230;-58
2023/06/19 07:13:28;;;;;;;5.20;3.10;;;;;;;21.69;67.23;96451.16;2074787;28;20190;-59
2023/06/19 07:14:30;;;;;;;6.07;3.15;;;;;;;21.76;67.51;96454.06;2073785;28;20284;-58
2023/06/19 07:15:32;;;;;;;6.50;3.25;;;;;;;22.06;66.71;96461.97;2074563;28;20194;-58
2023/06/19 07:16:33;;;;;;;4.38;2.92;;;;;;;22.05;66.18;96463.78;2072683;28;20212;-58
2023/06/19 07:17:35;;;;;;;5.95;3.08;;;;;;;21.99;66.56;96454.59;2071884;28;20233;-58
2023/06/19 07:18:38;;;;;;;4.85;3.00;;;;;;;22.20;66.19;96469.47;2073559;28;20309;-58
2023/06/19 07:19:40;;;;;;;4.28;2.95;;;;;;;22.34;66.45;96466.34;2074527;28;20202;-58
2023/06/19 07:20:41;;;;;;;4.35;2.80;;;;;;;22.28;65.61;96463.44;2075367;28;20728;-58
2023/06/19 07:21:43;;;;;;;3.90;2.80;;;;;;;22.18;66.03;96472.28;2072306;28;20574;-58
2023/06/19 07:22:46;;;;;;;4.53;3.20;;;;;;;22.35;65.88;96461.88;2074854;28;20379;-58
2023/06/19 07:23:47;;;;;;;6.85;3.38;;;;;;;22.30;65.62;96464.13;2074552;28;20197;-58
2023/06/19 07:24:49;;;;;;;5.03;3.50;;;;;;;22.20;66.05;96466.00;2073649;28;20284;-58
2023/06/19 07:25:50;;;;;;;4.47;2.80;;;;;;;22.27;66.14;96472.38;2072261;28;20217;-58
2023/06/19 07:26:53;;;;;;;4.65;3.15;;;;;;;22.30;65.81;96466.78;2072674;28;20713;-58
2023/06/19 07:27:54;;;;;;;5.30;3.35;;;;;;;22.43;65.80;96471.81;2069670;28;20790;-58
2023/06/19 07:28:56;;;;;;;4.47;3.00;;;;;;;22.57;65.63;96473.13;2070655;28;20197;-58
2023/06/19 07:29:57;;;;;;;4.90;3.10;;;;;;;22.50;65.32;96480.88;2073604;28;20198;-57
2023/06/19 07:30:59;;;;;;;4.22;2.50;;;;;;;22.65;65.75;96481.19;2073931;28;20255;-58
2023/06/19 07:32:02;;;;;;;4.05;2.90;;;;;;;22.67;64.03;96482.72;2074574;28;20205;-58
2023/06/19 07:33:05;;;;;;;4.68;3.30;;;;;;;22.80;64.25;96471.75;2070392;28;20233;-58
2023/06/19 07:34:06;;;;;;;3.70;2.90;;;;;;;22.94;63.46;96473.06;2071182;28;20205;-58
2023/06/19 07:35:08;;;;;;;3.50;2.95;;;;;;;23.11;62.44;96483.91;2072955;28;20198;-58
2023/06/19 07:36:13;;;;;;;4.32;2.55;;;;;;;23.14;61.89;96483.59;2072060;28;20198;-58
2023/06/19 07:37:17;;;;;;;5.10;2.60;;;;;;;23.07;61.94;96474.50;2075253;28;20250;-58
2023/06/19 07:38:19;;;;;;;4.75;2.75;;;;;;;23.25;61.94;96470.06;2072875;28;20211;-58
2023/06/19 07:39:21;;;;;;;4.45;2.35;;;;;;;23.21;61.91;96483.84;2073949;28;20194;-58
2023/06/19 07:40:22;;;;;;;5.78;3.05;;;;;;;22.93;62.66;96465.22;2070690;28;20198;-58
2023/06/19 07:41:24;;;;;;;4.85;3.30;;;;;;;23.12;62.80;96480.22;2071511;28;20253;-58
2023/06/19 07:42:26;;;;;;;3.22;2.17;;;;;;;23.03;62.78;96476.63;2075036;28;20736;-58
2023/06/19 07:43:27;;;;;;;4.45;2.78;;;;;;;23.22;63.05;96475.69;2070577;28;20386;-58
2023/06/19 07:44:29;;;;;;;5.10;2.88;;;;;;;23.12;62.64;96481.06;2070842;28;20225;-58
2023/06/19 07:45:30;;;;;;;6.07;3.03;;;;;;;23.06;63.23;96479.00;2072747;28;20198;-58
2023/06/19 07:46:32;;;;;;;5.38;3.10;;;;;;;22.94;63.10;96474.88;2070440;28;20218;-58
2023/06/19 07:47:33;;;;;;;4.07;2.90;;;;;;;22.90;63.54;96481.50;2073009;28;20231;-58
2023/06/19 07:48:35;;;;;;;3.90;2.67;;;;;;;22.86;64.32;96483.63;2072904;28;20197;-58
2023/06/19 07:49:37;;;;;;;3.65;2.63;;;;;;;22.80;64.22;96482.41;2074453;28;20242;-58
2023/06/19 07:52:04;;;;;;;5.18;2.70;;;;;;;22.73;63.98;96476.00;2083920;28;20571;-58
2023/06/19 07:54:27;;;;;;;5.00;3.13;;;;;;;22.44;64.64;96489.44;2091419;27;20581;-58
2023/06/19 07:56:53;;;;;;;5.65;2.70;;;;;;;22.62;65.15;96486.84;2092509;27;21305;-58
2023/06/19 07:57:56;;;;;;;4.65;2.70;;;;;;;23.02;64.41;96476.78;2078848;28;20216;-58
2023/06/19 07:58:58;;;;;;;4.95;2.50;;;;;;;23.27;62.93;96492.06;2078352;28;20222;-58
2023/06/19 07:59:59;;;;;;;6.80;2.75;;;;;;;23.15;62.22;96486.13;2075434;28;20202;-58
2023/06/19 08:01:01;;;;;;;4.18;2.70;;;;;;;23.38;61.72;96480.34;2075171;28;20197;-58
2023/06/19 08:02:02;;;;;;;3.80;2.58;;;;;;;23.48;61.74;96478.44;2075206;28;20201;-58
2023/06/19 08:03:04;;;;;;;7.72;2.60;;;;;;;23.62;60.37;96476.22;2077809;28;20691;-58
2023/06/19 08:04:06;;;;;;;3.80;2.60;;;;;;;23.75;61.19;96487.31;2079235;28;20194;-58
2023/06/19 08:05:09;;;;;;;6.68;2.95;;;;;;;23.94;60.76;96483.63;2081285;28;20723;-58
2023/06/19 08:06:11;;;;;;;5.30;2.88;;;;;;;24.10;59.97;96476.75;2077355;28;20200;-58
2023/06/19 08:07:13;;;;;;;3.25;2.40;;;;;;;24.10;59.87;96464.25;2074336;28;20194;-58
2023/06/19 08:10:18;;;;;;;3.15;2.45;;;;;;;23.96;59.54;96472.84;2103897;27;20552;-58
2023/06/19 08:11:20;;;;;;;4.28;2.67;;;;;;;24.06;59.33;96483.38;2094289;28;20257;-57
2023/06/19 08:12:21;;;;;;;4.22;2.95;;;;;;;24.18;58.93;96479.47;2088052;27;20202;-58
2023/06/19 08:13:23;;;;;;;4.75;3.00;;;;;;;24.34;58.91;96473.38;2082692;28;20200;-58
2023/06/19 08:14:24;;;;;;;5.03;3.20;;;;;;;24.49;58.22;96476.28;2083602;28;20331;-58
2023/06/19 08:15:26;;;;;;;4.45;2.55;;;;;;;24.30;58.51;96480.00;2082533;28;20198;-58
2023/06/19 08:16:28;;;;;;;3.80;2.55;;;;;;;24.58;57.93;96480.66;2080015;28;20281;-57
2023/06/19 08:17:29;;;;;;;4.13;3.08;;;;;;;24.74;57.93;96479.91;2081523;28;20706;-58
2023/06/19 08:18:31;;;;;;;3.45;2.55;;;;;;;24.88;57.09;96478.44;2084784;28;20196;-58
2023/06/19 08:19:32;;;;;;;4.82;2.65;;;;;;;24.78;56.80;96481.28;2084363;28;20192;-58
2023/06/19 08:20:34;;;;;;;3.92;2.35;;;;;;;25.17;56.52;96481.72;2084659;28;20751;-58
2023/06/19 08:21:35;;;;;;;5.57;3.00;;;;;;;25.45;55.89;96487.63;2088265;28;20192;-58
2023/06/19 08:22:37;;;;;;;5.28;2.35;;;;;;;25.62;54.93;96482.28;2084544;28;20228;-58
2023/06/19 08:23:40;;;;;;;3.55;2.58;;;;;;;25.73;55.12;96484.63;2090409;28;20200;-58
2023/06/19 08:24:41;;;;;;;8.88;2.60;;;;;;;25.91;54.33;96490.63;2089549;28;20240;-58
2023/06/19 08:25:43;;;;;;;3.33;2.28;;;;;;;26.16;53.56;96481.75;2091282;28;20203;-58
2023/06/19 08:26:45;;;;;;;6.75;3.67;;;;;;;26.23;53.67;96478.22;2092277;28;20197;-58
2023/06/19 08:27:46;;;;;;;2.83;2.15;;;;;;;26.45;52.77;96478.50;2088790;28;20278;-58
2023/06/19 08:28:48;;;;;;;2.80;2.00;;;;;;;26.45;52.92;96478.50;2087607;28;20202;-59
2023/06/19 08:29:49;;;;;;;4.40;2.00;;;;;;;26.63;52.79;96472.91;2090441;28;20264;-58
2023/06/19 08:30:51;;;;;;;3.45;2.30;;;;;;;26.82;52.89;96468.19;2088631;28;20270;-58
2023/06/19 08:31:53;;;;;;;4.72;2.97;;;;;;;27.02;52.39;96466.72;2089238;28;20192;-58
2023/06/19 08:32:54;;;;;;;3.95;2.25;;;;;;;27.10;51.96;96465.84;2086465;28;20215;-58
2023/06/19 08:33:56;;;;;;;6.50;2.97;;;;;;;27.04;51.98;96466.53;2088368;28;20640;-59
2023/06/19 08:34:58;;;;;;;5.57;2.75;;;;;;;27.08;52.03;96469.69;2088034;28;20197;-58
2023/06/19 08:35:59;;;;;;;3.45;2.42;;;;;;;27.25;51.73;96471.28;2087683;28;20560;-58
2023/06/19 08:37:01;;;;;;;5.50;3.42;;;;;;;27.23;51.47;96475.97;2088661;28;20285;-59
2023/06/19 08:38:02;;;;;;;4.00;2.88;;;;;;;27.50;51.00;96468.44;2088233;28;20290;-58
2023/06/19 08:39:04;;;;;;;3.40;2.53;;;;;;;27.46;51.15;96465.28;2086958;28;20204;-58
2023/06/19 08:40:09;;;;;;;3.88;2.90;;;;;;;26.93;51.19;96464.25;2089527;28;20231;-59
2023/06/19 08:41:11;;;;;;;4.85;2.80;;;;;;;26.82;51.93;96471.69;2085296;28;20603;-58
2023/06/19 08:42:12;;;;;;;3.63;2.30;;;;;;;27.19;51.26;96463.94;2085667;28;20226;-59
2023/06/19 08:43:14;;;;;;;3.70;2.70;;;;;;;27.15;51.24;96471.50;2087285;28;20726;-59
2023/06/19 08:44:16;;;;;;;3.95;2.67;;;;;;;26.89;51.89;96466.44;2086790;28;20243;-59
2023/06/19 08:45:20;;;;;;;4.88;3.63;;;;;;;26.61;52.59;96463.38;2087038;28;20196;-59
2023/06/19 08:46:22;;;;;;;3.17;2.30;;;;;;;26.76;52.85;96463.50;2088924;28;20200;-59
2023/06/19 08:47:29;;;;;;;3.35;2.67;;;;;;;27.11;52.39;96461.28;2086552;28;20228;-58
2023/06/19 08:48:34;;;;;;;4.45;2.92;;;;;;;27.09;52.75;96466.84;2087114;28;20200;-59
2023/06/19 08:49:37;;;;;;;4.03;2.80;;;;;;;27.31;52.00;96464.34;2087451;28;20201;-59
2023/06/19 08:50:39;;;;;;;6.63;2.95;;;;;;;27.83;50.77;96470.84;2085628;28;20740;-59
2023/06/19 08:51:40;;;;;;;3.60;2.60;;;;;;;27.69;51.60;96469.78;2084493;28;20228;-59
2023/06/19 08:52:42;;;;;;;6.30;2.90;;;;;;;27.52;51.77;96469.09;2083015;28;20232;-59
2023/06/19 08:53:46;;;;;;;4.05;3.20;;;;;;;27.67;51.09;96464.59;2086707;28;20580;-59
2023/06/19 08:54:48;;;;;;;5.47;3.92;;;;;;;27.14;51.60;96466.31;2089850;28;20254;-59
2023/06/19 08:55:50;;;;;;;3.85;2.92;;;;;;;26.95;51.91;96457.72;2088285;28;20706;-59
2023/06/19 08:56:53;;;;;;;4.55;3.15;;;;;;;26.67;52.45;96463.50;2086079;28;20200;-59
2023/06/19 08:57:55;;;;;;;4.18;2.85;;;;;;;26.64;53.24;96463.00;2086797;28;20220;-59
2023/06/19 08:58:56;;;;;;;6.65;3.25;;;;;;;27.25;52.53;96465.91;2089466;28;20304;-59
2023/06/19 08:59:58;;;;;;;4.07;2.65;;;;;;;27.62;51.42;96461.63;2080186;28;20288;-59
2023/06/19 09:00:59;;;;;;;5.70;3.47;;;;;;;27.03;52.16;96465.72;2080948;28;20283;-59
2023/06/19 09:02:01;;;;;;;3.97;2.80;;;;;;;27.38;52.42;96465.31;2086548;28;20192;-59
2023/06/19 09:03:03;;;;;;;7.75;3.00;;;;;;;27.77;51.81;96468.88;2089269;28;20319;-59
2023/06/19 09:04:14;;;;;;;8.20;3.25;;;;;;;28.07;51.30;96464.44;2090459;28;20200;-59
2023/06/19 09:05:17;;;;;;;7.10;2.67;;;;;;;28.26;50.53;96462.22;2090863;28;20325;-59
2023/06/19 09:06:19;;;;;;;5.80;3.25;;;;;;;28.37;49.82;96458.25;2087060;28;20644;-59
2023/06/19 09:07:21;;;;;;;6.90;3.10;;;;;;;28.17;50.92;96459.63;2084888;28;20593;-59
2023/06/19 09:08:23;;;;;;;6.95;3.60;;;;;;;28.73;49.63;96461.03;2088884;28;20196;-59
2023/06/19 09:09:26;;;;;;;4.55;2.83;;;;;;;28.45;49.66;96464.34;2087437;28;20644;-59
2023/06/19 09:10:28;;;;;;;3.50;2.63;;;;;;;27.94;50.00;96451.63;2084513;28;21048;-59
2023/06/19 09:11:30;;;;;;;3.70;2.65;;;;;;;27.86;49.93;96463.25;2090582;28;20201;-58
2023/06/19 09:12:33;;;;;;;6.03;2.92;;;;;;;27.93;50.22;96459.84;2090859;28;20227;-59
2023/06/19 09:13:34;;;;;;;4.65;2.80;;;;;;;27.82;50.73;96461.13;2091318;28;20200;-59
2023/06/19 09:14:41;;;;;;;4.55;3.20;;;;;;;28.06;50.29;96462.78;2087058;28;20315;-59
2023/06/19 09:15:43;;;;;;;4.13;2.70;;;;;;;28.13;49.49;96455.66;2089688;28;20203;-59
2023/06/19 09:16:44;;;;;;;3.45;2.65;;;;;;;28.53;49.43;96460.72;2090214;28;20224;-59
2023/06/19 09:17:46;;;;;;;6.57;2.70;;;;;;;28.99;49.34;96465.06;2089745;28;20231;-59
2023/06/19 09:18:48;;;;;;;6.15;2.95;;;;;;;28.74;48.50;96461.88;2089872;28;20228;-59
2023/06/19 09:19:51;;;;;;;3.40;2.33;;;;;;;29.28;48.17;96466.88;2088580;28;20251;-58
2023/06/19 09:20:54;;;;;;;3.50;2.70;;;;;;;28.96;47.98;96466.28;2089160;28;20530;-59
2023/06/19 09:22:03;;;;;;;4.03;3.30;;;;;;;28.21;48.48;96460.09;2084814;28;20201;-59
2023/06/19 09:23:05;;;;;;;3.25;2.35;;;;;;;28.16;48.69;96463.34;2085223;28;20238;-59
2023/06/19 09:24:07;;;;;;;5.65;2.60;;;;;;;28.04;48.73;96464.81;2080776;28;20201;-59
2023/06/19 09:25:10;;;;;;;3.70;2.65;;;;;;;27.43;50.00;96460.28;2080956;28;20767;-59
2023/06/19 09:26:15;;;;;;;4.25;2.60;;;;;;;27.76;50.26;96460.00;2080840;28;20223;-59
2023/06/19 09:27:19;;;;;;;5.50;2.47;;;;;;;27.94;49.77;96458.84;2081038;28;20207;-59
2023/06/19 09:28:26;;;;;;;6.22;2.75;;;;;;;27.75;49.95;96465.56;2081952;28;20429;-59
2023/06/19 09:29:27;;;;;;;5.68;2.63;;;;;;;27.82;50.57;96459.28;2081104;28;20201;-58
2023/06/19 09:30:29;;;;;;;7.97;1.92;;;;;;;28.15;49.89;96458.13;2082177;28;20716;-60
2023/06/19 09:31:33;;;;;;;3.15;2.40;;;;;;;28.41;49.86;96456.88;2084228;28;20193;-59
2023/06/19 09:32:35;;;;;;;12.20;3.30;;;;;;;27.85;50.68;96460.78;2083475;28;20735;-59
2023/06/19 09:33:39;;;;;;;2.90;2.15;;;;;;;28.24;49.63;96458.88;2083024;28;20205;-59
2023/06/19 09:34:41;;;;;;;3.55;2.40;;;;;;;28.48;49.72;96466.69;2083382;28;20204;-58
2023/06/19 09:35:42;;;;;;;5.68;2.22;;;;;;;29.05;48.51;96456.25;2081581;28;20200;-59
2023/06/19 09:36:45;;;;;;;3.63;2.55;;;;;;;28.92;48.22;96459.59;2078643;28;20201;-59
2023/06/19 09:37:48;;;;;;;4.88;2.38;;;;;;;28.60;48.66;96450.09;2079897;28;20447;-59
2023/06/19 09:38:52;;;;;;;7.68;2.55;;;;;;;28.93;48.47;96453.22;2081355;28;20197;-59
2023/06/19 09:39:56;;;;;;;5.10;2.33;;;;;;;29.09;48.84;96456.69;2082370;28;20202;-59
2023/06/19 09:41:01;;;;;;;2.50;2.05;;;;;;;29.57;47.14;96458.84;2082154;28;20200;-59
2023/06/19 09:42:04;;;;;;;4.13;2.38;;;;;;;29.67;46.80;96453.97;2081842;28;20201;-59
2023/06/19 09:43:07;;;;;;;2.90;2.10;;;;;;;29.83;46.67;96454.72;2082205;28;20652;-59
2023/06/19 09:44:12;;;;;;;6.97;2.20;;;;;;;29.75;46.60;96455.69;2084043;28;20223;-59
2023/06/19 09:45:18;;;;;;;2.90;2.20;;;;;;;29.79;47.17;96457.81;2078253;28;20426;-59
2023/06/19 09:46:22;;;;;;;3.67;2.23;;;;;;;29.80;46.93;96459.47;2080075;28;20430;-59
2023/06/19 09:47:27;;;;;;;2.97;2.17;;;;;;;29.55;47.41;96460.91;2078811;28;20529;-58
2023/06/19 09:48:32;;;;;;;4.00;1.93;;;;;;;29.59;46.98;96468.38;2079339;28;20220;-59
2023/06/19 09:49:35;;;;;;;4.73;2.80;;;;;;;29.69;46.81;96465.38;2079318;28;20437;-58
2023/06/19 09:50:39;;;;;;;3.23;2.13;;;;;;;29.93;46.56;96466.03;2082550;28;20499;-59
2023/06/19 09:51:42;;;;;;;8.53;2.60;;;;;;;29.79;46.72;96462.38;2079817;28;20505;-59
2023/06/19 09:52:44;;;;;;;3.77;2.00;;;;;;;29.12;47.78;96461.69;2078579;28;20498;-59
2023/06/19 09:53:48;;;;;;;5.13;2.97;;;;;;;28.64;47.89;96464.81;2076803;28;20440;-59
2023/06/19 09:54:51;;;;;;;3.70;2.57;;;;;;;28.95;47.44;96459.25;2082431;28;20429;-59
2023/06/19 09:55:52;;;;;;;6.70;3.00;;;;;;;29.08;47.10;96465.78;2079845;28;20477;-59
2023/06/19 09:56:58;;;;;;;4.93;2.40;;;;;;;29.58;46.95;96458.66;2080415;28;20530;-59
2023/06/19 09:58:02;;;;;;;4.00;2.80;;;;;;;29.19;47.83;96465.25;2081139;28;20523;-59
2023/06/19 09:59:05;;;;;;;3.40;2.60;;;;;;;29.33;47.55;96450.13;2084029;28;20429;-59
2023/06/19 10:00:12;;;;;;;6.50;2.40;;;;;;;29.11;48.14;96460.84;2085362;28;20423;-59
2023/06/19 10:01:14;;;;;;;5.03;2.80;;;;;;;29.88;46.84;96458.53;2082439;28;20452;-59
2023/06/19 10:02:18;;;;;;;4.93;2.60;;;;;;;29.43;46.99;96458.75;2079699;28;20869;-59
2023/06/19 10:03:19;;;;;;;2.83;2.40;;;;;;;29.59;46.71;96456.81;2081313;28;21461;-59
2023/06/19 10:04:21;;;;;;;4.20;2.30;;;;;;;29.25;47.08;96451.06;2081682;28;20423;-59
2023/06/19 10:05:32;;;;;;;4.40;2.53;;;;;;;28.77;48.05;96448.91;2080048;28;20461;-59
2023/06/19 10:06:43;;;;;;;4.13;2.60;;;;;;;28.98;47.63;96455.34;2082520;28;20482;-59
2023/06/19 10:07:46;;;;;;;3.20;2.57;;;;;;;28.77;48.40;96459.66;2086711;28;20453;-59
2023/06/19 10:08:50;;;;;;;3.03;2.20;;;;;;;29.03;48.21;96452.91;2083594;28;20516;-58
2023/06/19 10:10:05;;;;;;;3.17;2.33;;;;;;;29.13;47.68;96458.81;2082688;28;20519;-59
2023/06/19 10:11:07;;;;;;;4.27;2.87;;;;;;;29.36;47.38;96455.16;2095564;28;20891;-59
2023/06/19 10:12:12;;;;;;;2.90;2.20;;;;;;;29.55;47.75;96461.75;2093843;28;20986;-59
2023/06/19 10:13:17;;;;;;;4.30;2.70;;;;;;;29.35;47.90;96450.78;2082796;28;20427;-58
2023/06/19 10:14:20;;;;;;;3.00;2.40;;;;;;;29.29;48.52;96465.84;2081907;28;20422;-59
2023/06/19 10:15:23;;;;;;;4.10;2.93;;;;;;;29.29;48.28;96455.09;2084952;28;20425;-59
2023/06/19 10:16:25;;;;;;;4.40;2.77;;;;;;;29.58;47.26;96458.66;2081561;28;20916;-58
2023/06/19 10:17:30;;;;;;;3.50;3.00;;;;;;;29.42;47.43;96459.75;2080612;28;20564;-59
2023/06/19 10:18:33;;;;;;;3.10;2.00;;;;;;;29.80;46.98;96459.47;2084389;28;20418;-58
2023/06/19 10:19:35;;;;;;;6.00;2.67;;;;;;;29.43;47.40;96458.75;2082693;28;20425;-58
2023/06/19 10:20:38;;;;;;;4.90;2.77;;;;;;;29.85;46.88;96464.25;2084505;28;20452;-58
2023/06/19 10:21:50;;;;;;;5.17;3.07;;;;;;;29.27;47.88;96451.72;2079604;28;20606;-59
2023/06/19 10:23:12;;;;;;;6.57;2.93;;;;;;;29.26;47.69;96457.28;2080503;28;20506;-58
2023/06/19 10:24:18;;;;;;;5.90;3.30;;;;;;;29.27;48.34;96462.47;2079379;28;20442;-58
2023/06/19 10:25:24;;;;;;;4.13;2.73;;;;;;;29.32;48.37;96461.94;2082421;28;20427;-58
2023/06/19 10:26:33;;;;;;;6.10;2.73;;;;;;;29.34;47.89;96461.75;2082218;28;20440;-59
2023/06/19 10:27:38;;;;;;;7.97;3.10;;;;;;;29.78;47.38;96455.31;2079669;28;20558;-59
2023/06/19 10:28:45;;;;;;;6.23;2.73;;;;;;;29.78;47.86;96458.00;2081921;28;20426;-58
2023/06/19 10:29:53;;;;;;;3.17;2.73;;;;;;;29.53;47.67;96460.25;2083020;28;20513;-58
2023/06/19 10:31:09;;;;;;;3.20;2.50;;;;;;;29.40;47.81;96456.41;2079490;28;20477;-58
2023/06/19 10:32:11;;;;;;;3.20;2.70;;;;;;;28.99;48.18;96455.13;2083746;28;20449;-58
2023/06/19 10:33:12;;;;;;;3.90;2.63;;;;;;;28.78;48.42;96461.28;2078062;28;20432;-59
2023/06/19 10:34:14;;;;;;;3.63;2.87;;;;;;;28.84;48.46;96447.09;2081963;28;20422;-58
2023/06/19 10:35:17;;;;;;;8.30;2.93;;;;;;;28.93;48.25;96452.38;2078967;28;20431;-58
2023/06/19 10:36:22;;;;;;;4.07;2.80;;;;;;;28.99;48.67;96452.44;2078804;28;20526;-59
2023/06/19 10:37:33;;;;;;;3.40;2.80;;;;;;;29.60;47.59;96453.09;2080554;28;20452;-58
2023/06/19 10:38:35;;;;;;;5.53;2.70;;;;;;;29.58;47.80;96455.97;2080458;28;20424;-58
2023/06/19 10:39:36;;;;;;;4.60;3.33;;;;;;;29.32;47.48;96445.81;2081029;28;20929;-58
2023/06/19 10:40:37;;;;;;;4.20;3.10;;;;;;;29.47;47.58;96451.94;2080052;28;20465;-58
2023/06/19 10:41:40;;;;;;;7.37;3.10;;;;;;;29.76;46.76;96450.13;2079560;28;20418;-58
2023/06/19 10:42:42;;;;;;;3.80;2.80;;;;;;;30.04;46.90;96440.41;2081077;28;20550;-58
2023/06/19 10:44:03;;;;;;;4.93;3.20;;;;;;;29.44;46.72;96444.25;2082725;28;20423;-58
2023/06/19 10:45:08;;;;;;;10.40;2.70;;;;;;;29.35;47.62;96444.59;2078111;28;20445;-60
2023/06/19 10:46:10;;;;;;;45.87;34.27;;;;;;;29.51;46.90;96440.78;2078936;28;20855;-60
2023/06/19 10:47:11;;;;;;;10.70;7.93;;;;;;;29.83;46.13;96436.72;2079029;28;20429;-60
2023/06/19 10:48:18;;;;;;;4.47;3.93;;;;;;;29.17;47.31;96433.22;2083876;28;20426;-60
2023/06/19 10:49:21;;;;;;;10.90;7.37;;;;;;;29.27;47.44;96438.28;2081679;28;20414;-60
2023/06/19 10:50:22;;;;;;;2.93;2.33;;;;;;;28.80;47.36;96435.09;2080037;28;20423;-60
2023/06/19 10:51:24;;;;;;;8.43;2.57;;;;;;;28.66;47.96;96431.41;2077964;28;20965;-60
2023/06/19 10:52:29;;;;;;;3.60;2.80;;;;;;;28.72;47.62;96435.22;2081007;28;20477;-60
2023/06/19 10:53:32;;;;;;;3.60;2.33;;;;;;;29.54;46.76;96419.72;2084068;28;20456;-60
2023/06/19 10:54:34;;;;;;;4.73;3.23;;;;;;;30.00;45.97;96429.22;2082094;28;20453;-60
2023/06/19 10:55:35;;;;;;;3.60;2.80;;;;;;;29.88;46.17;96426.22;2083202;28;20430;-60
2023/06/19 10:56:37;;;;;;;3.60;2.60;;;;;;;29.91;45.87;96430.38;2079851;28;20421;-60
2023/06/19 10:57:40;;;;;;;6.83;2.80;;;;;;;29.72;45.76;96430.00;2082178;28;20481;-60
2023/06/19 10:58:41;;;;;;;5.67;3.10;;;;;;;30.02;46.16;96434.38;2082722;28;20428;-61
2023/06/19 10:59:43;;;;;;;3.33;2.47;;;;;;;30.30;45.59;96429.00;2081219;28;20586;-61
2023/06/19 11:00:45;;;;;;;5.10;2.77;;;;;;;30.12;45.57;96416.88;2080292;28;20518;-60
2023/06/19 11:01:50;;;;;;;4.30;2.77;;;;;;;30.32;45.28;96421.53;2079269;28;20423;-60
2023/06/19 11:02:52;;;;;;;3.60;2.90;;;;;;;30.57;45.76;96421.06;2081494;28;20458;-60
2023/06/19 11:03:54;;;;;;;3.20;2.87;;;;;;;30.61;44.92;96425.88;2080670;28;20431;-60
2023/06/19 11:04:55;;;;;;;4.00;2.77;;;;;;;30.65;44.80;96431.66;2081700;28;20433;-60
2023/06/19 11:05:57;;;;;;;3.27;2.40;;;;;;;30.36;45.01;96428.19;2081717;28;20783;-60
2023/06/19 11:07:05;;;;;;;5.33;2.83;;;;;;;30.26;45.23;96428.56;2086457;28;20426;-62
2023/06/19 11:08:06;;;;;;;4.30;2.30;;;;;;;29.55;45.91;96429.47;2084966;28;20477;-60
2023/06/19 11:09:09;;;;;;;2.73;2.43;;;;;;;29.75;46.11;96428.78;2084153;28;20418;-61
2023/06/19 11:10:19;;;;;;;4.27;2.50;;;;;;;30.16;45.25;96435.31;2083890;28;21023;-61
2023/06/19 11:11:21;;;;;;;2.90;2.50;;;;;;;30.78;44.75;96436.28;2083110;28;20465;-60
2023/06/19 11:12:23;;;;;;;5.03;3.00;;;;;;;29.92;45.37;96424.00;2078129;28;20426;-60
2023/06/19 11:13:28;;;;;;;3.97;3.10;;;;;;;30.69;44.69;96424.00;2083055;28;20444;-60
2023/06/19 11:14:30;;;;;;;6.13;2.80;;;;;;;30.80;44.49;96425.31;2081590;28;20995;-60
2023/06/19 11:15:32;;;;;;;3.30;2.73;;;;;;;31.31;43.95;96424.81;2084429;28;20421;-60
2023/06/19 11:16:37;;;;;;;5.03;2.67;;;;;;;31.55;43.50;96409.09;2080609;28;20435;-61
2023/06/19 11:17:38;;;;;;;6.40;2.90;;;;;;;31.88;42.67;96414.50;2077755;28;20458;-60
2023/06/19 11:18:40;;;;;;;3.67;2.80;;;;;;;31.88;42.56;96424.47;2079470;28;20790;-60
2023/06/19 11:19:43;;;;;;;4.77;3.00;;;;;;;31.49;43.18;96418.00;2086057;28;20425;-60
2023/06/19 11:20:52;;;;;;;3.80;2.50;;;;;;;31.88;42.69;96416.38;2080367;28;20505;-61
2023/06/19 11:21:54;;;;;;;4.60;2.80;;;;;;;31.12;43.47;96425.63;2079394;28;20427;-60
2023/06/19 11:23:00;;;;;;;3.07;2.37;;;;;;;30.93;44.21;96415.41;2079184;28;20980;-60
2023/06/19 11:24:02;;;;;;;3.60;2.47;;;;;;;31.03;44.10;96414.16;2077943;28;20448;-60
2023/06/19 11:25:04;;;;;;;3.60;2.50;;;;;;;30.89;44.22;96424.94;2082404;28;20513;-60
2023/06/19 11:26:06;;;;;;;9.57;2.80;;;;;;;30.54;44.80;96418.78;2079296;28;20457;-60
2023/06/19 11:27:16;;;;;;;4.10;3.03;;;;;;;30.22;45.87;96421.06;2077760;28;20766;-60
2023/06/19 11:28:21;;;;;;;4.20;2.83;;;;;;;30.18;46.00;96415.22;2084364;28;20430;-60
2023/06/19 11:29:30;;;;;;;3.80;2.43;;;;;;;30.25;46.12;96417.97;2078674;28;20485;-60
2023/06/19 11:30:33;;;;;;;3.30;2.67;;;;;;;30.46;45.96;96428.66;2080038;28;20418;-60
2023/06/19 11:31:34;;;;;;;3.40;2.80;;;;;;;30.73;45.07;96422.59;2082861;28;20465;-60
2023/06/19 11:32:40;;;;;;;3.93;2.77;;;;;;;30.95;44.49;96428.66;2082658;28;20465;-60
2023/06/19 11:33:42;;;;;;;2.90;2.40;;;;;;;30.88;44.10;96419.72;2078778;28;20431;-60
2023/06/19 11:34:44;;;;;;;4.60;2.70;;;;;;;30.73;44.76;96428.81;2081392;28;21137;-60
2023/06/19 11:35:53;;;;;;;4.07;2.77;;;;;;;30.66;43.74;96422.53;2078831;28;20579;-60
2023/06/19 11:36:54;;;;;;;7.03;3.30;;;;;;;31.16;44.02;96421.47;2082852;28;20430;-60
2023/06/19 11:37:57;;;;;;;3.17;2.83;;;;;;;31.55;43.60;96414.47;2081782;28;20499;-60
2023/06/19 11:38:59;;;;;;;4.63;2.53;;;;;;;32.07;42.50;96420.06;2078978;28;20465;-60
2023/06/19 11:40:00;;;;;;;3.57;2.70;;;;;;;31.88;42.57;96417.22;2080282;28;20476;-61
2023/06/19 11:41:02;;;;;;;6.67;3.20;;;;;;;31.80;43.15;96417.41;2095614;28;20426;-60
2023/06/19 11:42:04;;;;;;;6.00;2.90;;;;;;;31.95;42.97;96419.03;2096352;28;20416;-60
2023/06/19 11:43:05;;;;;;;3.30;2.57;;;;;;;31.25;43.04;96407.63;2079890;28;20501;-60
2023/06/19 11:44:10;;;;;;;6.47;3.67;;;;;;;30.82;44.47;96416.00;2080767;28;20430;-60
2023/06/19 11:45:11;;;;;;;3.80;2.80;;;;;;;30.73;44.61;96420.72;2084394;28;20434;-60
2023/06/19 11:46:15;;;;;;;4.10;2.53;;;;;;;30.70;44.29;96420.28;2083934;28;20427;-60
2023/06/19 11:47:18;;;;;;;5.87;3.27;;;;;;;30.64;44.74;96416.56;2082257;28;20426;-60
2023/06/19 11:48:24;;;;;;;4.00;3.03;;;;;;;30.67;45.02;96415.31;2078305;28;20627;-60
2023/06/19 11:49:25;;;;;;;3.37;2.47;;;;;;;29.97;45.74;96416.97;2079561;28;20523;-60
2023/06/19 11:50:27;;;;;;;4.50;2.83;;;;;;;29.91;46.02;96416.94;2082280;28;20438;-60
2023/06/19 11:51:30;;;;;;;19.83;12.50;;;;;;;29.80;45.73;96419.13;2083615;28;20989;-59
2023/06/19 11:52:31;;;;;;;69.37;49.40;;;;;;;30.19;45.48;96413.38;2084840;28;20489;-60
2023/06/19 11:53:33;;;;;;;12.70;9.40;;;;;;;30.15;46.07;96412.94;2084816;28;20830;-61
2023/06/19 11:54:34;;;;;;;11.60;8.43;;;;;;;30.30;45.68;96416.34;2085634;28;20464;-61
2023/06/19 11:55:36;;;;;;;5.43;3.20;;;;;;;30.07;46.00;96413.13;2083239;28;20776;-61
2023/06/19 11:56:40;;;;;;;4.40;3.27;;;;;;;30.00;45.80;96410.38;2081680;28;20461;-61
2023/06/19 11:57:42;;;;;;;4.03;3.30;;;;;;;29.40;46.69;96405.34;2082218;28;20453;-61
2023/06/19 11:58:45;;;;;;;6.03;2.77;;;;;;;29.67;46.75;96405.53;2083157;28;20434;-61
2023/06/19 11:59:46;;;;;;;3.43;2.87;;;;;;;29.70;47.07;96407.88;2083819;28;20459;-61
2023/06/19 12:00:48;;;;;;;5.80;3.40;;;;;;;29.70;46.61;96409.72;2085317;28;20421;-62